Latest Coastal Weather Observations for Neptune Island

IDT60701

Issued at 3:02 am EST Tuesday 28 April 2015 (issued every 10 minutes, with the page automatically refreshed every 10 minutes)

About coastal observations | Map of coastal stations | Coastal observations for TAS | Marine services | Other Formats
Station Details ID: 018115 Name: NEPTUNE ISLAND Lat: -35.34 Lon: 136.12 Height: 32.0 m
Data from the previous 72 hours. | See also: Recent months at Neptune Island
Date/Time
EST
Temp

°C
Wind Pressure Rain
since 9am
mm
Weather Cloud Vis
km
Sea
Height
m
Swell
Dir
 
Speed
knots
Gust
knots
hPa Trend Height
m
Period
s
Dir
28/03:00am 13.3 ESE 7 10 1028.8 - 1.8 - - - - - - -
28/02:30am 13.6 E 3 11 1028.9 - 1.6 - - - - - - -
28/02:00am 13.0 SE 10 13 1028.9 - 0.2 - - - - - - -
28/01:30am 14.2 SSE 9 14 1028.8 - 0.2 - - - - - - -
28/01:00am 14.4 SSE 8 12 1028.9 - 0.2 - - - - - - -
28/12:30am 14.3 SSE 11 14 1028.9 - 0.2 - - - - - - -
28/12:00am 14.3 S 11 14 1028.9 - 0.2 - - - - - - -
 
Date/Time
EST
Temp

°C
Wind Pressure Rain
since 9am
mm
Weather Cloud Vis
km
Sea
Height
m
Swell
Dir
 
Speed
knots
Gust
knots
hPa Trend Height
m
Period
s
Dir
27/11:30pm 14.6 SSW 11 15 1029.2 - 0.2 - - - - - - -
27/11:00pm 14.6 SSW 11 13 1029.2 - 0.2 - - - - - - -
27/10:30pm 14.8 S 11 13 1029.3 - 0.2 - - - - - - -
27/10:00pm 14.7 SSW 12 14 1029.2 - 0.2 - - - - - - -
27/09:30pm 14.9 S 12 16 1029.1 - 0.2 - - - - - - -
27/09:00pm 14.8 S 12 15 1029.0 - 0.2 - - - - - - -
27/08:30pm 14.6 S 13 17 1029.0 - 0.2 - - - - - - -
27/08:00pm 14.7 S 15 18 1028.8 - 0.2 - - - - - - -
27/07:30pm 14.9 S 15 18 1028.6 - 0.2 - - - - - - -
27/07:00pm 14.8 S 14 16 1028.3 - 0.2 - - - - - - -
27/06:30pm 14.9 S 16 20 1028.2 - 0.2 - - - - - - -
27/06:00pm 15.2 S 16 20 1027.9 - 0.2 - - - - - - -
27/05:30pm 15.3 S 17 20 1027.7 - 0.2 - - - - - - -
27/05:00pm 15.5 S 17 20 1027.7 - 0.2 - - - - - - -
27/04:30pm 16.1 SSW 15 20 1027.7 - 0.2 - - - - - - -
27/04:00pm 15.5 S 15 20 1027.6 - 0.2 - - - - - - -
27/03:30pm 15.5 S 17 20 1027.5 - 0.2 - - - - - - -
27/03:00pm 16.6 SSW 16 20 1027.5 - 0.2 - - - - - - -
27/02:30pm 15.7 SSW 16 19 1027.3 - 0.2 - - - - - - -
27/02:00pm 16.2 SSW 15 19 1027.3 - 0.2 - - - - - - -
27/01:30pm 16.1 SSW 15 18 1027.6 - 0.2 - - - - - - -
27/01:00pm 15.7 SSW 15 20 1027.9 - 0.2 - - - - - - -
27/12:30pm 15.4 SSW 15 18 1028.2 - 0.2 - - - - - - -
27/12:00pm 14.0 SSW 16 20 1028.6 - 0.2 - - - - - - -
27/11:30am 15.5 SSW 13 17 1028.7 - 0.2 - - - - - - -
27/11:00am 14.1 SW 10 13 1028.9 - 0.2 - - - - - - -
27/10:30am 13.7 SW 10 17 1028.8 - 0.2 - - - - - - -
27/10:00am 13.5 SW 10 15 1028.9 - 0.2 - - - - - - -
27/09:30am 15.2 SW 13 17 1028.5 - 0.0 - - - - - - -
27/09:00am 14.9 SSW 10 13 1028.3 - 0.0 - - - - - - -
27/08:30am 14.6 SSW 10 14 1028.0 - 0.0 - - - - - - -
27/08:00am 14.4 SW 10 12 1027.7 - 0.0 - - - - - - -
27/07:30am 14.4 SW 15 18 1027.4 - 0.0 - - - - - - -
27/07:00am 14.1 SSW 12 16 1027.5 - 0.0 - - - - - - -
27/06:30am 14.4 SSW 12 14 1027.3 - 0.0 - - - - - - -
27/06:00am 14.3 SW 13 17 1027.2 - 0.0 - - - - - - -
27/05:30am 14.4 SW 13 18 1027.1 - 0.0 - - - - - - -
27/05:00am 14.6 SSW 15 17 1026.9 - 0.0 - - - - - - -
27/04:30am 14.5 SSW 13 17 1026.8 - 0.0 - - - - - - -
27/04:00am 14.5 SW 13 16 1026.7 - 0.0 - - - - - - -
27/03:30am 14.5 SSW 13 16 1026.8 - 0.0 - - - - - - -
27/03:00am 14.6 SSW 11 16 1026.9 - 0.0 - - - - - - -
27/02:30am 14.7 SSW 12 16 1026.9 - 0.0 - - - - - - -
27/02:00am 14.8 SSW 15 19 1026.8 - 0.0 - - - - - - -
27/01:30am 14.5 SW 14 17 1026.9 - 0.0 - - - - - - -
27/01:00am 14.6 SW 15 18 1026.9 - 0.0 - - - - - - -
27/12:30am 14.6 SSW 12 15 1027.2 - 0.0 - - - - - - -
27/12:00am 14.6 SW 10 12 1027.2 - 0.0 - - - - - - -
 
Date/Time
EST
Temp

°C
Wind Pressure Rain
since 9am
mm
Weather Cloud Vis
km
Sea
Height
m
Swell
Dir
 
Speed
knots
Gust
knots
hPa Trend Height
m
Period
s
Dir
26/11:30pm 14.7 SSW 12 14 1027.4 - 0.0 - - - - - - -
26/11:00pm 14.6 SSW 11 14 1027.4 - 0.0 - - - - - - -
26/10:30pm 14.7 SSW 15 18 1027.4 - 0.0 - - - - - - -
26/10:00pm 14.5 SW 11 14 1027.3 - 0.0 - - - - - - -
26/09:30pm 14.3 SSW 13 17 1027.2 - 0.0 - - - - - - -
26/09:00pm 14.1 SW 16 22 1027.2 - 0.0 - - - - - - -
26/08:30pm 14.7 S 14 16 1027.0 - 0.0 - - - - - - -
26/08:00pm 14.9 SSW 15 18 1026.9 - 0.0 - - - - - - -
26/07:30pm 14.8 S 13 17 1026.7 - 0.0 - - - - - - -
26/07:00pm 14.9 SSW 13 16 1026.4 - 0.0 - - - - - - -
26/06:30pm 14.7 SSW 11 15 1026.2 - 0.0 - - - - - - -
26/06:00pm 14.9 SSW 9 12 1026.0 - 0.0 - - - - - - -
26/05:30pm 14.9 SSW 11 14 1025.9 - 0.0 - - - - - - -
26/05:00pm 14.9 SSW 12 16 1025.6 - 0.0 - - - - - - -
26/04:30pm 14.8 SSW 13 16 1025.6 - 0.0 - - - - - - -
26/04:00pm 14.7 SSW 10 12 1025.5 - 0.0 - - - - - - -
26/03:30pm 14.5 SW 13 16 1025.4 - 0.0 - - - - - - -
26/03:00pm 14.8 SSW 15 19 1025.3 - 0.0 - - - - - - -
26/02:30pm 15.0 SSW 14 17 1025.2 - 0.0 - - - - - - -
26/02:00pm 15.0 SSW 15 18 1025.2 - 0.0 - - - - - - -
26/01:30pm 14.9 SSW 16 21 1025.4 - 0.0 - - - - - - -
26/01:00pm 14.8 S 13 18 1025.6 - 0.0 - - - - - - -
26/12:30pm 15.2 SSW 11 15 1025.9 - 0.0 - - - - - - -
26/12:00pm 15.0 SSW 15 20 1026.0 - 0.0 - - - - - - -
26/11:30am 14.6 SSW 14 17 1026.0 - 0.0 - - - - - - -
26/11:00am 14.8 SSW 16 21 1025.8 - 0.0 - - - - - - -
26/10:30am 14.5 SW 17 20 1026.0 - 0.0 - - - - - - -
26/10:00am 14.9 SSW 11 15 1026.0 - 0.0 - - - - - - -
26/09:30am 14.7 SSW 17 22 1025.8 - 3.0 - - - - - - -
26/09:00am 14.6 SSW 19 22 1025.5 - 3.0 - - - - - - -
26/08:30am 14.7 SSW 18 25 1025.0 - 3.0 - - - - - - -
26/08:00am 14.6 SSW 17 21 1024.6 - 3.0 - - - - - - -
26/07:30am 14.8 SSW 15 19 1024.1 - 3.0 - - - - - - -
26/07:00am 14.7 S 17 21 1023.8 - 3.0 - - - - - - -
26/06:30am 14.4 SSW 19 26 1023.6 - 3.0 - - - - - - -
26/06:00am 14.5 SSW 21 27 1023.2 - 3.0 - - - - - - -
26/05:30am 15.0 S 17 23 1023.1 - 3.0 - - - - - - -
26/05:00am 14.9 S 17 21 1022.9 - 3.0 - - - - - - -
26/04:30am 14.6 SSW 17 23 1022.7 - 3.0 - - - - - - -
26/04:00am 14.7 SSW 17 21 1022.6 - 3.0 - - - - - - -
26/03:30am 14.4 SSW 17 21 1022.5 - 3.0 - - - - - - -
26/03:00am 14.1 SSW 14 17 1022.6 - 3.0 - - - - - - -
26/02:30am 14.4 SSW 17 21 1022.6 - 3.0 - - - - - - -
26/02:00am 14.6 S 15 19 1022.6 - 3.0 - - - - - - -
26/01:30am 14.3 S 18 22 1022.6 - 3.0 - - - - - - -
26/01:00am 14.3 SSW 16 20 1022.5 - 3.0 - - - - - - -
26/12:30am 14.7 SSW 17 21 1022.6 - 3.0 - - - - - - -
26/12:00am 14.9 SSW 17 20 1022.7 - 3.0 - - - - - - -
 
Date/Time
EST
Temp

°C
Wind Pressure Rain
since 9am
mm
Weather Cloud Vis
km
Sea
Height
m
Swell
Dir
 
Speed
knots
Gust
knots
hPa Trend Height
m
Period
s
Dir
25/11:30pm 14.5 SSW 18 22 1022.6 - 3.0 - - - - - - -
25/11:00pm 14.4 S 19 22 1022.5 - 3.0 - - - - - - -
25/10:30pm 13.8 S 17 23 1022.3 - 3.0 - - - - - - -
25/10:00pm 14.0 S 16 20 1022.2 - 3.0 - - - - - - -
25/09:30pm 14.0 S 20 24 1021.7 - 3.0 Recent precip. - - - - - -
25/09:00pm 13.5 S 21 27 1021.7 - 3.0 - - - - - - -
25/08:30pm 13.9 SSW 17 21 1021.3 - 2.6 - - - - - - -
25/08:00pm 14.4 S 22 27 1021.0 - 2.6 - - - - - - -
25/07:30pm 14.7 SSW 19 22 1021.0 - 2.6 - - - - - - -
25/07:00pm 14.7 SSW 22 28 1020.6 - 2.6 - - - - - - -
25/06:30pm 14.6 SSW 20 24 1020.2 - 2.6 - - - - - - -
25/06:00pm 14.8 SSW 22 29 1019.7 - 2.6 - - - - - - -
25/05:30pm 14.8 S 23 26 1019.5 - 2.6 - - - - - - -
25/05:00pm 14.9 SSW 24 28 1019.0 - 2.6 - - - - - - -
25/04:30pm 15.0 SSW 23 28 1018.7 - 2.6 - - - - - - -
25/04:00pm 14.5 SSW 25 30 1018.4 - 2.6 - - - - - - -
25/03:30pm 14.9 S 23 29 1018.2 - 2.6 - - - - - - -
25/03:00pm 15.1 SSW 23 29 1017.7 - 2.6 - - - - - - -
25/02:30pm 14.8 SSW 27 31 1017.3 - 2.6 - - - - - - -
25/02:00pm 15.2 SSW 29 34 1017.0 - 2.6 - - - - - - -
25/01:30pm 14.6 SSW 27 32 1016.9 - 2.6 - - - - - - -
25/01:00pm 15.6 SSW 25 30 1016.9 - 2.4 - - - - - - -
25/12:30pm 14.1 S 23 28 1017.0 - 2.4 Rain - - - - - -
25/12:00pm 14.1 SSW 26 33 1016.8 - 1.8 - - - - - - -
25/11:30am 14.7 SSW 28 33 1016.5 - 1.8 - - - - - - -
25/11:18am 14.6 SSW 25 33 1016.3 - 1.8 - - - - - - -
25/11:00am 14.3 S 20 24 1016.6 - 1.0 - - - - - - -
25/10:30am 15.0 SSE 17 22 1016.0 - 0.0 - - - - - - -
25/10:00am 16.0 S 19 24 1015.5 - 0.0 - - - - - - -
25/09:30am 15.5 SSW 16 19 1015.1 - 10.4 - - - - - - -
25/09:00am 15.2 S 15 20 1014.7 - 10.4 - - - - - - -
25/08:30am 14.8 S 15 19 1014.0 - 10.4 - - - - - - -
25/08:00am 14.7 S 16 20 1013.4 - 10.4 - - - - - - -
25/07:30am 14.5 S 14 19 1012.9 - 10.4 - - - - - - -
25/07:00am 14.5 SSW 21 25 1012.3 - 10.4 - - - - - - -
25/06:48am 14.2 S 18 24 1012.1 - 10.4 - - - - - - -
25/06:30am 13.7 S 19 25 1011.8 - 10.4 Recent precip. - - - - - -
25/06:23am 13.5 S 20 25 1011.6 - 10.4 - - - - - - -
25/06:00am 14.2 S 18 29 1011.1 - 10.4 - - - - - - -
25/05:54am 13.6 S 15 25 1011.1 - 10.4 - - - - - - -
25/05:30am 13.2 SSE 21 27 1010.5 - 10.2 - - - - - - -
25/05:29am 13.4 S 21 27 1010.4 - 10.2 - - - - - - -
25/05:00am 14.0 SSW 25 35 1009.6 - 10.2 - - - - - - -
25/04:59am 14.2 SSW 24 35 1009.6 - 10.2 - - - - - - -
25/04:30am 13.9 SSW 25 28 1009.3 - 10.2 - - - - - - -
25/04:07am 13.7 S 27 37 1009.0 - 10.2 - - - - - - -
25/04:00am 13.9 SSW 30 37 1009.0 - 10.2 - - - - - - -

Other Formats:

Comma delimited format used in spreadsheet applications
http://www.bom.gov.au/fwo/IDT60701/IDT60701.94804.axf

JavaScript Object Notation format (JSON) in row-major order
http://www.bom.gov.au/fwo/IDT60701/IDT60701.94804.json